Richardson's Hourly Summary for Tuesday, July 10, 2018
Hour Temp
(f)
RH
(%)
Solar Rad.
(MJ/m2)
Rainfall
(in)
Wind
(mph)
7/10/2018 12:00 AM 78 74 0 0 2.56
7/10/2018 1:00 AM 77 79 0 0 3.79
7/10/2018 2:00 AM 76 83 0 0 2.8
7/10/2018 3:00 AM 76 84 0 0 2.93
7/10/2018 4:00 AM 75 86 0 0 1.85
7/10/2018 5:00 AM 75 87 0 0 1.62
7/10/2018 6:00 AM 74 87 0 0 2.04
7/10/2018 7:00 AM 74 87 0.02 0 1.89
7/10/2018 8:00 AM 75 83 0.18 0 1.63
7/10/2018 9:00 AM 77 77 0.45 0 2.78
7/10/2018 10:00 AM 80 66 1.55 0 3.57
7/10/2018 11:00 AM 85 53 2.47 0 2.14
7/10/2018 12:00 PM 88 48 2.59 0 2.37
7/10/2018 1:00 PM 90 41 2.71 0 2.42
7/10/2018 2:00 PM 90 41 2.16 0 2.07
7/10/2018 3:00 PM 91 41 1.78 0 2.62
7/10/2018 4:00 PM 90 43 0.72 0 4.04
7/10/2018 5:00 PM 81 46 0.24 0 6.84
7/10/2018 6:00 PM 80 61 0.34 0 2.91
7/10/2018 7:00 PM 82 61 0.37 0 3.36
7/10/2018 8:00 PM 83 60 0.19 0 2.79
7/10/2018 9:00 PM 82 63 0.02 0 1.96
7/10/2018 10:00 PM 81 65 0 0 2.56
7/10/2018 11:00 PM 80 70 0 0 0.66
Data Summary 80 66 15.79 0.00 2.68